Latest Weather Observations for Norseman Airport

IDW60801

Issued at 4:04 am WST Monday 5 December 2016 (issued every 30 minutes, with the page automatically refreshed every 10 minutes)

About weather observations | Map of weather stations | Latest weather observations for WA | Other Formats
Station Details ID: 012009 Name: NORSEMAN AERO Lat: -32.21 Lon: 121.75 Height: 262.5 m
Data from the previous 72 hours. | See also: Recent months at Norseman Airport
Date/Time
WST
Temp
°C
App
Temp
°C
Dew
Point
°C
Rel
Hum
%
Delta-T
°C
Wind Press
QNH
hPa
Press
MSL
hPa
Rain since
9am
mm
Dir  Spd
km/h
Gust
km/h
Spd
kts
Gust
kts
05/04:00am 11.9 10.2 7.4 74 2.2 ESE 6 9 3 5 1013.4 1012.3 0.0
05/03:30am 12.5 10.9 7.8 73 2.3 ESE 6 7 3 4 1013.4 1012.3 0.0
05/03:00am 13.0 10.9 8.1 72 2.5 ENE 9 13 5 7 1013.3 1012.2 0.0
05/02:30am 13.3 10.0 8.0 70 2.7 ENE 15 22 8 12 1013.5 1012.4 0.0
05/02:00am 13.6 10.0 8.2 70 2.7 ENE 17 24 9 13 1013.2 1012.1 0.0
05/01:30am 13.8 10.7 7.3 65 3.2 ENE 13 19 7 10 1013.3 1012.2 0.0
05/01:00am 14.1 10.9 6.9 62 3.5 E 13 22 7 12 1013.1 1012.0 0.0
05/12:30am 14.4 10.9 7.0 61 3.7 ESE 15 26 8 14 1013.2 1012.1 0.0
05/12:00am 14.6 11.5 7.2 61 3.7 ESE 13 19 7 10 1013.2 1012.1 0.0
 
Date/Time
WST
Temp
°C
App
Temp
°C
Dew
Point
°C
Rel
Hum
%
Delta-T
°C
Wind Press
QNH
hPa
Press
MSL
hPa
Rain since
9am
mm
Dir  Spd
km/h
Gust
km/h
Spd
kts
Gust
kts
04/11:30pm 15.0 11.5 7.3 60 3.8 ESE 15 24 8 13 1013.2 1012.1 0.0
04/11:00pm 15.3 11.8 7.3 59 4.0 SE 15 26 8 14 1013.3 1012.2 0.0
04/10:30pm 15.6 12.1 7.1 57 4.2 SE 15 30 8 16 1013.3 1012.2 0.0
04/10:00pm 16.0 11.9 6.4 53 4.7 SE 17 26 9 14 1013.6 1012.5 0.0
04/09:30pm 16.7 11.3 6.5 51 5.1 SSE 24 35 13 19 1013.4 1012.3 0.0
04/09:00pm 17.7 13.1 6.6 48 5.6 SSE 20 33 11 18 1013.2 1012.1 0.0
04/08:30pm 18.5 13.9 6.7 46 6.0 SSE 20 32 11 17 1012.8 1011.7 0.0
04/08:00pm 19.7 14.1 5.4 39 7.1 SSE 24 39 13 21 1012.5 1011.3 0.0
04/07:30pm 21.1 16.3 4.6 34 8.2 SSE 19 28 10 15 1012.4 1011.2 0.0
04/07:00pm 21.9 17.4 4.0 31 8.8 SSE 17 24 9 13 1012.3 1011.1 0.0
04/06:30pm 23.3 18.4 2.2 25 10.1 SE 17 22 9 12 1011.9 1010.7 0.0
04/06:00pm 24.1 19.7 2.9 25 10.4 SSE 15 24 8 13 1011.7 1010.5 0.0
04/05:30pm 24.3 19.0 3.0 25 10.4 S 20 28 11 15 1011.5 1010.3 0.0
04/05:00pm 24.8 19.5 2.9 24 10.8 SE 20 35 11 19 1011.0 1009.9 0.0
04/04:30pm 25.3 20.2 3.3 24 10.9 S 19 28 10 15 1010.7 1009.6 0.0
04/04:00pm 25.6 20.7 4.1 25 10.9 SSE 19 32 10 17 1010.5 1009.4 0.0
04/03:30pm 24.8 20.4 4.5 27 10.3 S 17 26 9 14 1010.4 1009.3 0.0
04/03:00pm 25.9 20.8 3.2 23 11.3 SSW 19 32 10 17 1010.5 1009.4 0.0
04/02:30pm 25.2 20.6 3.8 25 10.7 SW 17 30 9 16 1010.6 1009.5 0.0
04/02:00pm 25.0 20.0 3.6 25 10.7 SSW 19 28 10 15 1010.8 1009.7 0.0
04/01:30pm 24.9 19.7 3.5 25 10.6 SSW 20 30 11 16 1011.0 1009.9 0.0
04/01:00pm 24.9 20.4 4.1 26 10.5 S 17 35 9 19 1011.2 1010.0 0.0
04/12:30pm 23.8 19.6 3.7 27 9.9 S 15 26 8 14 1011.2 1010.0 0.0
04/12:00pm 24.1 19.6 4.0 27 10.0 SSW 17 33 9 18 1011.4 1010.2 0.0
04/11:30am 23.3 18.2 4.3 29 9.5 SW 20 33 11 18 1011.9 1010.7 0.0
04/11:00am 22.1 18.1 4.7 32 8.7 SSW 15 30 8 16 1012.0 1010.8 0.0
04/10:30am 21.6 16.9 5.1 34 8.3 SW 19 26 10 14 1012.3 1011.1 0.0
04/10:00am 21.4 17.2 5.7 36 7.9 WSW 17 32 9 17 1012.6 1011.4 0.0
04/09:30am 19.0 15.0 6.5 44 6.3 SW 17 24 9 13 1012.8 1011.7 0.0
04/09:00am 19.4 15.0 7.5 46 6.2 SSW 20 28 11 15 1012.8 1011.7 0.0
04/08:30am 17.6 13.2 7.6 52 5.1 SSW 20 32 11 17 1012.9 1011.8 0.0
04/08:00am 16.5 11.9 9.7 64 3.6 SSW 24 33 13 18 1012.8 1011.7 0.0
04/07:30am 16.1 12.8 10.8 71 2.9 S 19 28 10 15 1012.8 1011.7 0.0
04/07:00am 15.0 11.6 11.2 78 2.1 S 20 32 11 17 1012.7 1011.5 0.0
04/06:30am 14.6 10.4 11.2 80 1.8 S 24 32 13 17 1012.4 1011.2 0.0
04/06:00am 15.7 12.3 11.3 75 2.4 SSW 20 28 11 15 1011.8 1010.6 0.0
04/05:30am 15.5 11.6 10.9 74 2.5 SSW 22 30 12 16 1011.2 1010.0 0.0
04/05:00am 15.1 12.6 11.1 77 2.2 SSW 15 22 8 12 1010.8 1009.7 0.0
04/04:30am 14.4 12.3 11.2 81 1.7 S 13 22 7 12 1010.6 1009.5 0.0
04/04:00am 12.8 11.1 9.8 82 1.6 S 9 9 5 5 1009.7 1008.6 0.0
04/03:30am 12.3 10.8 9.0 80 1.7 S 7 7 4 4 1009.0 1007.8 0.0
04/03:00am 13.0 12.9 9.4 79 1.9 CALM 0 0 0 0 1008.7 1007.5 0.0
04/02:30am 13.5 13.4 9.6 77 2.0 CALM 0 0 0 0 1008.4 1007.2 0.0
04/02:00am 14.4 14.6 10.4 77 2.1 CALM 0 0 0 0 1008.2 1007.0 0.0
04/01:30am 15.0 14.5 10.8 76 2.3 SSW 4 6 2 3 1008.1 1006.9 0.0
04/01:00am 15.6 14.3 11.2 75 2.4 S 9 13 5 7 1008.2 1007.0 0.0
04/12:30am 16.1 14.1 11.5 74 2.5 SSW 13 20 7 11 1008.3 1007.1 0.0
04/12:00am 15.8 12.5 11.0 73 2.6 S 19 28 10 15 1008.3 1007.1 0.0
 
Date/Time
WST
Temp
°C
App
Temp
°C
Dew
Point
°C
Rel
Hum
%
Delta-T
°C
Wind Press
QNH
hPa
Press
MSL
hPa
Rain since
9am
mm
Dir  Spd
km/h
Gust
km/h
Spd
kts
Gust
kts
03/11:30pm 16.2 13.1 10.3 68 3.2 S 17 26 9 14 1008.2 1007.0 0.0
03/11:00pm 16.8 13.5 9.7 63 3.8 S 17 24 9 13 1008.0 1006.8 0.0
03/10:30pm 17.5 14.0 8.9 57 4.5 S 17 28 9 15 1007.4 1006.2 0.0
03/10:00pm 18.3 13.8 8.6 53 5.1 S 22 33 12 18 1007.2 1006.0 0.0
03/09:30pm 19.0 15.7 9.5 54 5.1 S 17 24 9 13 1006.4 1005.3 0.0
03/09:00pm 19.6 16.3 9.5 52 5.4 SSW 17 24 9 13 1005.8 1004.6 0.0
03/08:30pm 20.4 16.7 9.6 50 5.8 S 19 28 10 15 1005.4 1004.2 0.0
03/08:00pm 21.2 17.4 9.8 48 6.2 S 20 33 11 18 1005.0 1003.8 0.0
03/07:30pm 22.1 18.1 10.3 47 6.5 S 22 39 12 21 1004.3 1003.1 0.0
03/07:00pm 23.9 20.1 9.9 41 7.8 SSE 20 37 11 20 1003.5 1002.3 0.0
03/06:30pm 27.1 22.8 9.5 33 9.8 SSE 22 30 12 16 1002.5 1001.3 0.0
03/06:04pm 31.2 23.7 6.3 21 13.5 SW 35 54 19 29 1001.7 1000.5 0.0
03/06:00pm 32.0 22.3 -2.1 11 16.2 WSW 39 54 21 29 1001.7 1000.5 0.0
03/05:30pm 32.4 23.1 -1.8 11 16.3 WSW 37 54 20 29 1001.1 999.9 0.0
03/05:16pm 32.7 23.5 -1.6 11 16.4 WSW 37 56 20 30 1000.9 999.7 0.0
03/05:00pm 33.2 23.3 -1.2 11 16.7 WSW 41 56 22 30 1000.6 999.4 0.0
03/04:30pm 34.4 24.4 0.9 12 16.9 SW 43 56 23 30 1000.1 998.9 0.0
03/04:03pm 36.0 26.9 2.1 12 17.6 WSW 39 57 21 31 999.6 998.4 0.0
03/04:00pm 36.1 26.7 2.2 12 17.7 WSW 41 54 22 29 999.6 998.4 0.0
03/03:30pm 37.0 27.3 0.4 10 18.6 WSW 41 61 22 33 998.9 997.7 0.0
03/03:00pm 37.6 29.7 2.1 11 18.7 W 33 48 18 26 999.2 997.9 0.0
03/02:50pm 37.9 29.8 1.0 10 19.1 WNW 33 50 18 27 999.0 997.8 0.0
03/02:45pm 37.9 29.0 1.0 10 19.1 WNW 37 61 20 33 999.0 997.8 0.0
03/02:30pm 38.6 30.8 2.9 11 19.1 W 33 54 18 29 998.8 997.6 0.0
03/02:03pm 38.3 29.5 1.3 10 19.2 WNW 37 56 20 30 999.2 997.9 0.0
03/02:00pm 38.2 29.2 2.6 11 19.0 WNW 39 56 21 30 999.2 997.9 0.0
03/01:52pm 38.3 30.5 2.7 11 18.9 WNW 33 54 18 29 998.9 997.7 0.0
03/01:44pm 38.5 29.0 1.5 10 19.3 W 41 56 22 30 999.3 998.0 0.0
03/01:32pm 38.4 31.2 2.8 11 19.0 NW 30 48 16 26 999.2 997.9 0.0
03/01:30pm 38.7 30.9 1.6 10 19.4 NW 32 48 17 26 999.3 998.0 0.0
03/01:09pm 38.4 31.2 2.8 11 19.0 WNW 30 46 16 25 999.5 998.3 0.0
03/01:00pm 38.5 30.6 4.1 12 18.8 WNW 35 54 19 29 999.7 998.5 0.0
03/12:52pm 38.3 29.9 3.9 12 18.6 NW 37 54 20 29 999.8 998.6 0.0
03/12:34pm 38.7 32.3 5.4 13 18.5 WNW 28 57 15 31 999.8 998.6 0.0
03/12:30pm 38.4 32.2 6.2 14 18.0 NNW 28 39 15 21 999.9 998.7 0.0
03/12:21pm 37.7 29.8 4.6 13 18.0 NW 35 54 19 29 1000.1 998.9 0.0
03/12:13pm 37.8 30.9 4.7 13 18.1 NW 30 54 16 29 1000.3 999.1 0.0
03/12:11pm 38.0 32.1 5.9 14 17.9 NW 26 50 14 27 1000.1 998.9 0.0
03/12:00pm 35.8 31.9 8.6 19 15.7 NNW 19 32 10 17 1000.4 999.2 0.0
03/11:30am 34.7 31.7 10.5 23 14.2 NNE 17 33 9 18 1001.2 1000.0 0.0
03/11:00am 32.2 29.1 10.3 26 12.8 N 17 24 9 13 1002.2 1001.0 0.0
03/10:30am 30.2 26.7 10.2 29 11.5 N 19 28 10 15 1002.8 1001.7 0.0
03/10:00am 28.3 24.4 9.6 31 10.6 N 20 28 11 15 1003.4 1002.2 0.0
03/09:30am 27.3 22.4 10.1 34 9.7 N 26 33 14 18 1003.9 1002.7 0.0
03/09:00am 25.0 20.4 9.7 38 8.5 N 24 30 13 16 1004.2 1003.0 0.0
03/08:30am 23.8 18.8 9.4 40 7.9 N 26 33 14 18 1004.6 1003.4 0.0
03/08:00am 22.5 18.3 9.6 44 7.1 N 22 33 12 18 1005.0 1003.8 0.0
03/07:30am 20.9 16.6 9.5 48 6.2 NNE 22 30 12 16 1005.4 1004.2 0.0
03/07:00am 19.6 14.9 9.2 51 5.6 NNE 24 32 13 17 1005.8 1004.6 0.0
03/06:30am 18.4 13.7 9.2 55 4.9 NNE 24 35 13 19 1006.1 1005.0 0.0
03/06:00am 17.0 12.6 8.9 59 4.3 NE 22 30 12 16 1006.2 1005.1 0.0
03/05:30am 16.1 12.6 8.8 62 3.8 NE 17 20 9 11 1006.3 1005.2 0.0
03/05:00am 15.5 13.1 8.7 64 3.5 NE 11 13 6 7 1006.5 1005.4 0.0
03/04:30am 15.5 12.7 8.5 63 3.6 NE 13 17 7 9 1006.4 1005.3 0.0
03/04:00am 15.7 13.2 8.4 62 3.8 NE 11 13 6 7 1006.4 1005.3 0.0
03/03:30am 16.3 12.8 8.8 61 3.9 NE 17 20 9 11 1006.6 1005.5 0.0
03/03:00am 16.4 13.2 8.6 60 4.1 NE 15 17 8 9 1006.8 1005.7 0.0
03/02:30am 16.6 14.2 8.6 59 4.1 NE 11 17 6 9 1006.7 1005.6 0.0
03/02:00am 17.0 14.2 8.7 58 4.3 NE 13 20 7 11 1006.9 1005.8 0.0
03/01:30am 17.2 14.4 8.6 57 4.5 ENE 13 19 7 10 1007.0 1005.9 0.0
03/01:00am 17.6 14.8 8.5 55 4.8 ENE 13 19 7 10 1007.5 1006.3 0.0
03/12:30am 18.0 15.1 8.3 53 5.0 ENE 13 17 7 9 1007.6 1006.4 0.0
03/12:00am 18.4 15.6 8.4 52 5.2 ENE 13 24 7 13 1007.6 1006.4 0.0
 
Date/Time
WST
Temp
°C
App
Temp
°C
Dew
Point
°C
Rel
Hum
%
Delta-T
°C
Wind Press
QNH
hPa
Press
MSL
hPa
Rain since
9am
mm
Dir  Spd
km/h
Gust
km/h
Spd
kts
Gust
kts
02/11:30pm 18.4 16.2 7.8 50 5.5 NE 9 15 5 8 1007.8 1006.6 0.0
02/11:00pm 18.6 15.9 7.4 48 5.8 E 11 19 6 10 1008.0 1006.8 0.0
02/10:30pm 19.2 14.5 7.6 47 6.0 ESE 22 32 12 17 1007.9 1006.7 0.0
02/10:00pm 19.9 15.2 7.6 45 6.4 ESE 22 37 12 20 1008.0 1006.8 0.0
02/09:30pm 20.8 15.7 7.8 43 6.8 ESE 24 43 13 23 1008.2 1007.0 0.0
02/09:00pm 21.8 16.3 7.6 40 7.5 ESE 26 41 14 22 1008.0 1006.8 0.0
02/08:30pm 22.6 17.0 7.2 37 8.1 SE 26 41 14 22 1008.2 1007.0 0.0
02/08:00pm 25.2 22.0 6.9 31 9.7 SSE 13 20 7 11 1008.1 1006.9 0.0
02/07:30pm 25.2 22.2 7.8 33 9.4 SSE 13 17 7 9 1008.1 1006.9 0.0
02/07:00pm 26.8 25.2 7.8 30 10.3 ENE 6 7 3 4 1008.2 1007.0 0.0
02/06:30pm 28.0 25.9 8.3 29 10.8 N 9 15 5 8 1008.1 1006.9 0.0
02/06:00pm 28.6 26.4 7.8 27 11.4 N 9 15 5 8 1008.0 1006.8 0.0
02/05:30pm 29.6 27.1 8.1 26 11.9 WNW 11 17 6 9 1007.9 1006.7 0.0
02/05:00pm 29.4 26.4 7.9 26 11.9 NNW 13 20 7 11 1007.7 1006.5 0.0
02/04:30pm 29.3 27.5 7.8 26 11.8 W 7 11 4 6 1007.9 1006.7 0.0
02/04:00pm 30.8 29.3 8.5 25 12.5 NW 6 17 3 9 1008.2 1007.0 0.0
02/03:30pm 29.3 26.7 7.8 26 11.8 NNE 11 20 6 11 1008.6 1007.4 0.0
02/03:00pm 29.2 27.3 7.7 26 11.8 WSW 7 11 4 6 1008.7 1007.5 0.0
02/02:30pm 29.0 27.1 7.6 26 11.7 W 7 17 4 9 1009.4 1008.3 0.0
02/02:00pm 29.4 26.8 7.9 26 11.9 NNW 11 22 6 12 1009.8 1008.7 0.0
02/01:30pm 27.0 24.6 6.9 28 10.7 N 9 20 5 11 1010.3 1009.2 0.0
02/01:00pm 27.8 25.5 7.6 28 11.0 NE 9 17 5 9 1010.7 1009.6 0.0
02/12:30pm 26.6 23.1 7.1 29 10.4 ENE 15 26 8 14 1011.5 1010.3 0.0
02/12:00pm 25.1 22.2 6.3 30 9.8 N 11 17 6 9 1012.1 1010.9 0.0
02/11:30am 25.2 21.6 6.9 31 9.7 NNE 15 24 8 13 1012.7 1011.5 0.0
02/11:00am 23.9 20.9 6.2 32 9.2 ENE 11 19 6 10 1013.2 1012.1 0.0
02/10:30am 22.7 19.7 6.0 34 8.6 E 11 22 6 12 1013.7 1012.6 0.0
02/10:00am 22.0 20.0 7.0 38 7.8 NE 7 17 4 9 1014.4 1013.3 0.0
02/09:30am 20.4 16.9 7.1 42 6.9 ENE 15 28 8 15 1014.9 1013.8 0.0
02/09:00am 19.5 16.3 6.9 44 6.4 ENE 13 24 7 13 1015.3 1014.1 0.0
02/08:30am 18.4 14.9 7.2 48 5.7 ENE 15 24 8 13 1015.6 1014.4 0.0
02/08:00am 17.1 13.9 6.9 51 5.1 E 13 22 7 12 1015.9 1014.7 0.0
02/07:30am 16.0 11.8 7.5 57 4.3 NE 19 24 10 13 1016.0 1014.8 0.0
02/07:00am 14.6 11.1 7.4 62 3.6 NE 15 22 8 12 1016.3 1015.2 0.0
02/06:30am 13.7 10.7 7.5 66 3.1 ENE 13 20 7 11 - - 0.0
02/06:00am 12.6 9.5 7.1 69 2.7 E 13 19 7 10 1016.1 1014.9 0.0
02/05:30am 11.4 9.3 6.7 73 2.3 E 7 11 4 6 1015.9 1014.7 0.0
02/05:00am 9.8 7.9 6.5 80 1.6 ENE 6 7 3 4 1015.7 1014.5 0.0
02/04:30am 9.7 8.1 6.2 79 1.6 ESE 4 7 2 4 1015.5 1014.3 0.0

Other Formats:

Comma delimited format used in spreadsheet applications
http://www.bom.gov.au/fwo/IDW60801/IDW60801.95642.axf

JavaScript Object Notation format (JSON) in row-major order
http://www.bom.gov.au/fwo/IDW60801/IDW60801.95642.json